Station: Mount Crawford

  Atmospheric Gas Attenuation - ITU Rec 676-11   --------------- db/100km ---------------
Date Time Temp RH % AH g/m3 Dew Point Wind Direction Speed kph Gust kph Barometer mB Rainfall Since 9am 24GHz 47GHz 76GHz 122GHz 134GHz 241GHz
27 14:00 12.7 67 7.46 6.7 15 20 1024.2 0 17.2 24.8 36.3 94.9 85.6 293.5
27 13:50 12 67 7.14 6.1 15 17 1024.4 0 16.5 24.5 35.3 92.3 82.3 281.6
27 13:40 11.1 68 6.85 5.4 17 19 1024.5 0 16.0 24.3 34.6 90.4 79.5 271.6
27 13:30 11.6 68 7.07 5.9 17 24 1024.5 0 16.4 24.5 35.2 92.1 81.8 279.9
27 13:20 12.8 69 7.73 7.3 9 11 1024.6 0 17.8 25.2 37.3 97.6 89.1 305.5
27 13:10 12.6 68 7.52 6.9 22 26 1024.5 0 17.3 24.9 36.6 95.6 86.5 296.7
27 13:00 11 67 6.71 5.1 11 17 1024.6 0 15.7 24.1 34.1 89.0 77.8 265.7
27 12:50 11.4 69 7.08 5.9 17 19 1024.9 0 16.4 24.6 35.4 92.5 82.2 281.1
27 12:40 11.6 70 7.28 6.3 11 13 1025 0 16.9 24.8 36.1 94.4 84.6 289.6
27 12:30 11.7 69 7.22 6.2 19 28 1025 0 16.7 24.7 35.8 93.6 83.7 286.4
27 12:20 11.7 69 7.22 6.2 15 19 1025.1 0 16.7 24.7 35.8 93.6 83.7 286.5
27 12:10 11.3 69 7.04 5.8 26 32 1025.2 0 16.4 24.5 35.3 92.2 81.8 279.7
27 12:00 11.7 69 7.22 6.2 17 26 1025.3 0 16.7 24.7 35.8 93.6 83.7 286.5
27 11:50 10.6 68 6.64 4.9 17 20 1025.5 0 15.5 24.1 34.0 88.8 77.3 264.0
27 11:40 11 70 7.01 5.7 22 24 1025.6 0 16.3 24.6 35.3 92.3 81.7 279.5
27 11:30 11.4 74 7.6 6.9 17 24 1025.6 0 17.6 25.4 37.5 98.1 89.0 305.2
27 11:20 10.4 73 7.04 5.8 9 13 1025.9 0 16.4 24.8 35.7 93.3 82.8 283.1
27 11:10 9.9 70 6.54 4.7 17 19 1026 0 15.4 24.2 34.0 88.6 76.7 261.9
27 11:00 10.4 70 6.75 5.2 15 22 1025.9 0 15.8 24.4 34.6 90.2 79.0 269.8
27 10:50 10.3 70 6.71 5.1 19 24 1026 0 15.7 24.3 34.5 89.9 78.5 268.3
27 10:40 9.5 69 6.28 4.1 11 13 1026.2 0 14.8 23.9 33.1 86.3 73.8 251.4
27 10:30 9.5 72 6.56 4.7 13 19 1026.2 0 15.4 24.3 34.2 89.3 77.4 264.2
27 10:20 9.9 72 6.72 5.1 13 17 1026.3 0 15.7 24.5 34.7 90.5 79.1 270.2
27 10:10 9.9 69 6.44 4.5 17 20 1026.3 0 15.1 24.0 33.6 87.6 75.5 257.4
27 10:00 11.2 77 7.81 7.3 13 19 1026.3 0 18.0 25.9 38.5 100.7 92.1 316.0
27 09:50 10.2 70 6.66 5 19 22 1026.4 0 15.6 24.3 34.3 89.6 78.0 266.5
27 09:40 9.2 71 6.34 4.2 11 13 1026.5 0 15.0 24.0 33.5 87.3 74.8 255.2
27 09:30 10.1 73 6.9 5.5 9 13 1026.5 0 16.1 24.7 35.3 92.2 81.3 277.8
27 09:20 9.2 76 6.79 5.2 9 13 1026.5 0 15.9 24.8 35.3 92.1 80.8 275.9
27 09:10 8.8 76 6.62 4.8 7 9 1026.6 0 15.6 24.6 34.8 90.8 78.9 269.4
27 09:00 9.3 74 6.65 4.9 11 19 1026.5 0 15.6 24.5 34.7 90.5 78.8 269.1
27 08:50 9.2 78 6.97 5.6 9 13 1026.4 0 16.3 25.1 36.0 94.0 83.1 284.3
27 08:40 8.6 76 6.53 4.6 11 15 1026.5 0 15.4 24.5 34.5 90.0 77.9 265.9
27 08:30 8.5 76 6.49 4.5 11 19 1026.5 0 15.3 24.5 34.4 89.7 77.5 264.4
27 08:20 8.3 78 6.58 4.7 13 15 1026.5 0 15.5 24.7 34.8 90.9 78.9 269.2
27 08:10 8.2 81 6.79 5.1 11 13 1026.4 0 16.0 25.0 35.7 93.3 81.8 279.4
27 08:00 7.6 81 6.53 4.6 11 17 1026.2 0 15.4 24.8 34.9 91.1 78.9 269.2
27 07:50 7.8 83 6.78 5.1 9 11 1026.3 0 16.0 25.1 35.8 93.6 82.1 280.3
27 07:40 7.4 81 6.44 4.4 11 13 1026.2 0 15.2 24.7 34.6 90.4 77.9 265.7
27 07:30 7.3 81 6.4 4.3 9 13 1026 0 15.2 24.6 34.5 90.1 77.5 264.1
27 07:20 7.5 81 6.49 4.5 11 13 1025.9 0 15.3 24.7 34.8 90.8 78.5 267.6
27 07:10 6.8 80 6.12 3.6 13 13 1025.8 0 14.6 24.3 33.6 87.6 74.2 252.6
27 07:00 6.6 81 6.12 3.6 9 13 1025.6 0 14.6 24.4 33.7 87.8 74.4 253.2
27 06:50 6.5 82 6.15 3.7 9 13 1025.5 0 14.7 24.4 33.8 88.2 74.9 254.9
27 06:40 6 85 6.17 3.7 9 11 1025.3 0 14.7 24.6 34.1 89.0 75.6 257.4
27 06:30 5.7 85 6.05 3.4 11 15 1025.2 0 14.5 24.5 33.7 88.0 74.3 252.7
27 06:20 5.4 87 6.07 3.4 13 15 1025 0 14.5 24.6 33.9 88.5 74.8 254.6
27 06:10 5.2 87 5.99 3.2 13 13 1024.9 0 14.4 24.5 33.7 87.9 73.9 251.4
27 06:00 5.3 88 6.1 3.5 11 13 1024.6 0 14.6 24.6 34.1 88.9 75.3 256.2
27 05:50 5.1 89 6.09 3.4 11 13 1024.5 0 14.6 24.7 34.1 89.0 75.3 256.4
27 05:40 5 89 6.05 3.3 13 13 1024.3 0 14.5 24.6 34.0 88.7 74.9 254.8
27 05:30 4.9 90 6.08 3.4 13 15 1024.1 0 14.6 24.7 34.2 89.1 75.4 256.5
27 05:10 5.1 89 6.09 3.4 13 13 1023.8 0 14.6 24.6 34.1 89.0 75.3 256.2
27 04:40 4.8 92 6.17 3.6 13 15 1023.5 0 14.8 24.9 34.5 90.2 76.7 261.0
27 04:30 4.9 92 6.21 3.7 15 17 1023.4 0 14.8 24.9 34.7 90.5 77.1 262.5
27 04:20 4.9 92 6.21 3.7 15 17 1023.4 0 14.8 24.9 34.7 90.5 77.1 262.5
27 04:10 4.9 91 6.15 3.6 13 15 1023.3 0 14.7 24.8 34.4 89.8 76.3 259.7
27 04:00 4.8 91 6.11 3.5 15 17 1023.2 0 14.6 24.7 34.3 89.5 75.8 258.0
27 03:50 4.9 91 6.15 3.6 17 17 1023.2 0 14.7 24.8 34.4 89.8 76.3 259.6
27 03:40 4.8 91 6.11 3.5 17 17 1023.1 0 14.6 24.7 34.3 89.5 75.8 258.0
27 03:30 4.7 91 6.07 3.4 17 19 1023 0 14.5 24.7 34.1 89.1 75.4 256.4
27 03:20 4.8 91 6.11 3.5 17 19 1023 0 14.6 24.7 34.3 89.4 75.8 258.0
27 03:10 4.8 91 6.11 3.5 17 17 1022.9 0 14.6 24.7 34.3 89.4 75.8 258.0
27 03:00 4.6 92 6.09 3.4 13 17 1022.8 0 14.6 24.7 34.3 89.4 75.7 257.7
27 02:50 4.6 93 6.16 3.6 13 15 1022.8 0 14.7 24.9 34.6 90.2 76.7 261.0
27 02:40 4.6 93 6.16 3.6 15 17 1022.8 0 14.7 24.9 34.6 90.2 76.7 261.0
27 02:30 4.6 93 6.16 3.6 15 17 1022.7 0 14.7 24.9 34.6 90.2 76.7 261.0
27 02:20 4.7 94 6.27 3.8 15 17 1022.9 0 15.0 25.0 35.0 91.3 78.1 266.0
27 02:10 4.5 95 6.25 3.8 13 15 1022.9 0 14.9 25.0 35.0 91.3 78.0 265.7
27 02:00 4.5 96 6.32 3.9 13 15 1022.8 0 15.1 25.2 35.3 92.1 79.0 269.1
27 01:50 4.6 96 6.36 4 13 13 1023 0 15.2 25.2 35.4 92.5 79.5 270.7
27 01:40 4.9 96 6.48 4.3 15 17 1023.1 0 15.4 25.3 35.8 93.5 80.8 275.5
27 01:30 4.7 96 6.4 4.1 13 17 1023 0 15.3 25.2 35.5 92.8 79.9 272.3
27 01:20 4.6 95 6.29 3.9 13 15 1023.1 0 15.0 25.1 35.1 91.7 78.5 267.4
27 01:10 4.7 94 6.27 3.8 13 15 1023.2 0 15.0 25.0 35.0 91.4 78.1 266.1
27 01:00 4.7 93 6.2 3.7 15 17 1023.2 0 14.8 24.9 34.7 90.6 77.2 262.7
27 00:50 4.7 93 6.2 3.7 15 15 1023.3 0 14.8 24.9 34.7 90.6 77.2 262.7
27 00:40 4.8 92 6.17 3.6 13 15 1023.3 0 14.8 24.8 34.5 90.1 76.7 260.9
27 00:30 4.7 91 6.07 3.4 13 15 1023.3 0 14.5 24.7 34.2 89.1 75.4 256.5
27 00:20 5 89 6.05 3.3 13 15 1023.4 0 14.5 24.6 34.0 88.6 74.8 254.6
27 00:10 5.2 87 5.99 3.2 11 13 1023.4 0 14.4 24.4 33.6 87.7 73.8 251.1
27 00:00 5.5 87 6.11 3.5 9 11 1023.4 0 14.6 24.6 34.0 88.7 75.2 255.8
26 23:50 5.4 87 6.07 3.4 9 9 1023.4 0 14.5 24.5 33.9 88.4 74.7 254.2
26 23:40 5.4 87 6.07 3.4 9 11 1023.4 0 14.5 24.5 33.9 88.4 74.7 254.2
26 23:30 5.4 86 6 3.3 11 13 1023.4 0 14.4 24.4 33.6 87.6 73.8 250.9
26 23:20 5.5 87 6.11 3.5 9 11 1023.5 0 14.6 24.6 34.0 88.7 75.2 255.8
26 23:10 5.4 85 5.93 3.1 9 9 1023.4 0 14.2 24.3 33.3 86.8 72.8 247.6
26 23:00 5.5 85 5.97 3.2 11 13 1023.3 0 14.3 24.3 33.4 87.2 73.3 249.2
26 22:50 5.5 85 5.97 3.2 13 13 1023.3 0 14.3 24.3 33.4 87.2 73.3 249.2
26 22:40 5.7 84 5.98 3.2 11 13 1023.4 0 14.3 24.3 33.4 87.0 73.2 249.0
26 22:30 5.7 83 5.91 3 11 13 1023.4 0 14.2 24.2 33.1 86.3 72.3 245.7
26 22:20 5.5 82 5.76 2.7 11 13 1023.4 0 13.9 24.0 32.6 84.9 70.5 239.3
26 22:10 5.7 80 5.7 2.5 11 13 1023.4 0 13.7 23.8 32.2 84.0 69.5 235.9
26 22:00 5.7 79 5.63 2.4 13 17 1023.4 0 13.6 23.7 32.0 83.3 68.6 232.7
26 21:50 5.8 78 5.59 2.3 13 15 1023.4 0 13.5 23.6 31.8 82.7 67.9 230.5
26 21:40 5.9 77 5.56 2.2 15 17 1023.4 0 13.4 23.6 31.6 82.3 67.5 228.8
26 21:30 5.7 76 5.41 1.8 15 17 1023.5 0 13.1 23.4 31.1 80.9 65.7 222.5
26 21:20 5.5 77 5.41 1.8 13 17 1023.4 0 13.1 23.4 31.2 81.1 65.8 223.1
26 21:10 5.7 79 5.63 2.4 13 17 1023.4 0 13.6 23.7 32.0 83.3 68.6 232.7
26 21:00 5.6 78 5.52 2.1 15 19 1023.4 0 13.3 23.6 31.6 82.2 67.2 227.9

Last Refresh: 27-Sep-2020 14:09:23

Most of the information presented on this site is sourced from the Bureau of Meteorology.  Copyright in all material sourced from the Bureau of Meteorology resides with the Commonwealth of Australia.